Time;durP1;ratioP1;P1;durP2;ratioP2;P2;SDS_P1;SDS_P2;PMS_P1;PMS_P2;Temp;Humidity;BMP_temperature;BMP_pressure;BME280_temperature;BME280_humidity;BME280_pressure;Samples;Min_cycle;Max_cycle;Signal;HPM_P1;HPM_P2
2021/12/13 15:05:56;;;;;;;18.55;12.30;;;10.30;99.90;;;;;;3190908;26;20039;-91
2021/12/13 15:08:34;;;;;;;19.08;13.10;;;10.30;99.90;;;;;;4928161;29;20043;-91
2021/12/13 15:11:48;;;;;;;20.57;13.10;;;10.30;99.90;;;;;;4943753;29;20027;-93
2021/12/13 15:14:47;;;;;;;21.65;13.65;;;10.30;99.90;;;;;;4962090;29;20031;-91
2021/12/13 15:17:52;;;;;;;;;;;;;;;;;;;;;
2021/12/13 15:20:36;;;;;;;21.55;14.25;;;10.30;99.90;;;;;;4948862;29;20031;-91
2021/12/13 15:23:20;;;;;;;21.60;13.10;;;10.30;99.90;;;;;;4960037;29;20031;-91
2021/12/13 15:25:59;;;;;;;21.23;13.25;;;10.30;99.90;;;;;;4959288;29;20034;-94
2021/12/13 15:28:37;;;;;;;20.60;13.68;;;10.30;99.90;;;;;;4941914;29;20082;-90
2021/12/13 15:31:24;;;;;;;;;;;;;;;;;;;;;
2021/12/13 15:34:12;;;;;;;20.85;14.02;;;10.30;99.90;;;;;;4958124;29;20041;-90
2021/12/13 15:36:45;;;;;;;;;;;10.30;99.90;;;;;;4941372;29;20034;-92
2021/12/13 15:39:21;;;;;;;22.50;13.85;;;10.30;99.90;;;;;;4940378;29;20389;-91
2021/12/13 15:42:00;;;;;;;;;;;;;;;;;;;;;
2021/12/13 15:44:54;;;;;;;20.83;14.80;;;10.30;99.90;;;;;;4958293;29;20395;-89
2021/12/13 15:50:35;;;;;;;24.63;14.73;;;10.30;99.90;;;;;;4957952;29;20423;-92
2021/12/13 15:53:07;;;;;;;21.67;14.52;;;10.20;99.90;;;;;;4940100;29;20028;-92
2021/12/13 15:55:54;;;;;;;24.55;15.38;;;10.20;99.90;;;;;;4940071;29;20031;-94
2021/12/13 15:58:34;;;;;;;24.88;15.00;;;10.30;99.90;;;;;;4940969;29;20027;-92
2021/12/13 16:01:46;;;;;;;;;;;;;;;;;;;;;
2021/12/13 16:04:25;;;;;;;27.65;16.13;;;10.20;99.90;;;;;;4931709;28;20047;-93
2021/12/13 16:07:13;;;;;;;27.75;17.63;;;10.20;99.90;;;;;;4957464;29;20058;-92
2021/12/13 16:09:48;;;;;;;28.05;16.25;;;10.20;99.90;;;;;;4939952;29;20440;-94
2021/12/13 16:12:38;;;;;;;22.33;14.32;;;10.20;99.90;;;;;;4940218;29;20443;-90
2021/12/13 16:15:09;;;;;;;24.58;15.25;;;10.20;99.90;;;;;;4958589;29;20024;-92
2021/12/13 16:17:49;;;;;;;;;;;;;;;;;;;;;
2021/12/13 16:20:30;;;;;;;41.47;21.40;;;10.20;99.90;;;;;;4957840;29;20023;-90
2021/12/13 16:23:23;;;;;;;;;;;;;;;;;;;;;
2021/12/13 16:25:58;;;;;;;31.05;17.60;;;10.10;99.90;;;;;;4959608;29;20098;-91
2021/12/13 16:28:39;;;;;;;34.75;19.75;;;10.10;99.90;;;;;;4940367;29;20035;-90
2021/12/13 16:31:24;;;;;;;36.58;21.17;;;9.90;99.90;;;;;;4957017;29;20061;-89
2021/12/13 16:33:58;;;;;;;47.90;24.00;;;10.10;99.90;;;;;;4939555;29;20023;-90
2021/12/13 16:36:52;;;;;;;44.40;23.33;;;10.10;99.90;;;;;;4956568;29;20028;-94
2021/12/13 16:39:26;;;;;;;34.47;20.42;;;10.10;99.90;;;;;;4953913;29;20035;-90
2021/12/13 16:41:59;;;;;;;33.00;18.17;;;10.10;99.90;;;;;;4956511;29;20039;-94
2021/12/13 16:44:37;;;;;;;22.40;14.95;;;10.10;99.90;;;;;;4939139;29;20030;-91
2021/12/13 16:47:15;;;;;;;23.77;15.68;;;10.20;99.90;;;;;;4939256;29;20035;-91
2021/12/13 16:49:52;;;;;;;23.20;15.07;;;10.20;99.90;;;;;;4956763;29;20027;-91
2021/12/13 16:52:31;;;;;;;28.85;17.17;;;10.10;99.90;;;;;;4943156;29;20035;-91
2021/12/13 16:55:42;;;;;;;33.40;20.42;;;10.20;99.90;;;;;;4957651;29;20053;-92
2021/12/13 16:58:19;;;;;;;31.85;19.80;;;10.20;99.90;;;;;;4958110;29;20149;-90
2021/12/13 17:01:20;;;;;;;;;;;;;;;;;;;;;
2021/12/13 17:03:59;;;;;;;;;;;;;;;;;;;;;
2021/12/13 17:07:03;;;;;;;29.73;16.95;;;10.10;99.90;;;;;;4958993;29;20118;-92
2021/12/13 17:13:08;;;;;;;;;;;;;;;;;;;;;
2021/12/13 17:15:46;;;;;;;24.80;15.98;;;10.10;99.90;;;;;;4944433;29;20039;-90
2021/12/13 17:18:30;;;;;;;23.67;16.38;;;10.10;99.90;;;;;;4959324;28;20059;-90
2021/12/13 17:21:46;;;;;;;21.92;15.40;;;10.10;99.90;;;;;;4960727;28;20510;-92
2021/12/13 17:24:21;;;;;;;22.17;16.08;;;10.10;99.90;;;;;;4946207;29;20094;-89
2021/12/13 17:26:50;;;;;;;25.52;16.90;;;10.10;99.90;;;;;;4953559;29;20031;-89
2021/12/13 17:29:28;;;;;;;27.90;18.30;;;10.10;99.90;;;;;;4968858;28;20030;-89
2021/12/13 17:32:23;;;;;;;34.17;20.43;;;10.10;99.90;;;;;;4940294;29;20491;-92
2021/12/13 17:34:52;;;;;;;37.80;20.67;;;10.10;99.90;;;;;;4953302;28;20114;-89
2021/12/13 17:37:23;;;;;;;;;;;10.10;99.90;;;;;;4956297;28;20023;-88
2021/12/13 17:40:03;;;;;;;33.50;21.35;;;10.10;99.90;;;;;;4961740;28;19914;-95
2021/12/13 17:42:40;;;;;;;31.00;20.38;;;10.10;99.90;;;;;;4957605;29;20039;-90
2021/12/13 17:45:29;;;;;;;29.10;18.80;;;10.10;99.90;;;;;;4960494;29;20023;-89
2021/12/13 17:48:21;;;;;;;24.52;16.50;;;10.10;99.90;;;;;;4954598;29;20047;-90
2021/12/13 17:51:00;;;;;;;21.52;16.33;;;10.10;99.90;;;;;;4961455;29;20031;-88
2021/12/13 17:53:33;;;;;;;22.48;14.77;;;10.10;99.90;;;;;;4964218;29;20487;-90
2021/12/13 17:56:09;;;;;;;22.27;14.98;;;10.10;99.90;;;;;;4946083;29;20049;-88
2021/12/13 17:58:50;;;;;;;21.10;14.95;;;10.10;99.90;;;;;;4960587;29;20029;-88
2021/12/13 18:01:27;;;;;;;24.60;14.98;;;10.10;99.90;;;;;;4962145;29;20043;-90
2021/12/13 18:04:14;;;;;;;22.40;16.77;;;10.10;99.90;;;;;;4947000;29;20037;-92
2021/12/13 18:07:07;;;;;;;;;;;;;;;;;;;;;
2021/12/13 18:13:34;;;;;;;;;;;;;;;;;;;;;
2021/12/13 18:16:29;;;;;;;;;;;;;;;;;;;;;
2021/12/13 18:19:25;;;;;;;;;;;;;;;;;;;;;
2021/12/13 18:22:01;;;;;;;;;;;;;;;;;;;;;
2021/12/13 18:24:37;;;;;;;32.88;20.92;;;10.10;99.90;;;;;;4953922;29;20027;-89
2021/12/13 18:27:42;;;;;;;24.75;17.83;;;10.00;99.90;;;;;;4936938;29;20035;-93
2021/12/13 18:30:53;;;;;;;26.15;17.95;;;10.10;99.90;;;;;;4937708;29;20050;-94
2021/12/13 18:50:40;;;;;;;;;;;;;;;;;;;;;
2021/12/13 18:53:18;;;;;;;24.63;16.58;;;10.00;99.90;;;;;;4686233;30;20038;-89
2021/12/13 18:55:48;;;;;;;20.70;14.70;;;10.00;99.90;;;;;;4762112;29;20090;-91
2021/12/13 18:58:43;;;;;;;25.25;15.95;;;10.00;99.90;;;;;;4812211;29;20046;-90
2021/12/13 19:04:44;;;;;;;20.13;13.90;;;10.00;99.90;;;;;;4804502;29;20472;-92
2021/12/13 19:20:11;;;;;;;;;;;;;;;;;;;;;
2021/12/13 19:23:09;;;;;;;22.15;15.82;;;9.90;99.90;;;;;;4895000;29;20046;-91
2021/12/13 19:29:06;;;;;;;;;;;;;;;;;;;;;
2021/12/13 19:32:34;;;;;;;;;;;;;;;;;;;;;
2021/12/13 19:35:22;;;;;;;;;;;;;;;;;;;;;
2021/12/13 19:38:47;;;;;;;;;;;;;;;;;;;;;
2021/12/13 19:41:16;;;;;;;22.17;16.63;;;9.80;99.90;;;;;;4930862;29;20047;-90
2021/12/13 19:43:55;;;;;;;22.65;17.30;;;9.80;99.90;;;;;;4937232;29;20035;-91
2021/12/13 19:47:12;;;;;;;21.58;16.70;;;9.70;99.90;;;;;;4934832;29;20059;-91
2021/12/13 19:49:46;;;;;;;23.17;18.00;;;9.80;99.90;;;;;;4869125;28;20029;-90
2021/12/13 19:52:37;;;;;;;26.42;16.92;;;9.70;99.90;;;;;;4953135;29;20030;-89
2021/12/13 19:55:33;;;;;;;27.75;18.80;;;9.70;99.90;;;;;;4936595;29;20563;-90
2021/12/13 19:58:34;;;;;;;;;;;;;;;;;;;;;
2021/12/13 20:04:35;;;;;;;26.00;17.98;;;9.70;99.90;;;;;;4956722;28;20103;-94
2021/12/13 20:07:06;;;;;;;24.77;17.70;;;9.70;99.90;;;;;;4907777;29;20236;-91
2021/12/13 20:10:06;;;;;;;27.40;19.80;;;9.70;99.90;;;;;;4940968;29;20371;-93
2021/12/13 20:12:36;;;;;;;29.38;18.20;;;9.70;99.90;;;;;;4956267;28;20042;-90
2021/12/13 20:15:51;;;;;;;27.60;19.17;;;9.60;99.90;;;;;;4956482;28;20037;-91
2021/12/13 20:18:26;;;;;;;26.02;18.73;;;9.60;99.90;;;;;;4952643;29;20125;-91
2021/12/13 20:21:19;;;;;;;24.02;17.33;;;9.70;99.90;;;;;;4955416;29;20031;-91
2021/12/13 20:24:00;;;;;;;25.92;16.88;;;9.70;99.90;;;;;;4938411;29;20032;-91
2021/12/13 20:26:41;;;;;;;28.58;18.75;;;9.60;99.90;;;;;;4956191;29;20023;-91
2021/12/13 20:29:19;;;;;;;29.75;18.73;;;9.70;99.90;;;;;;4955721;29;20022;-90
2021/12/13 20:32:08;;;;;;;26.98;19.10;;;9.60;99.90;;;;;;4955845;29;20110;-92
2021/12/13 20:35:06;;;;;;;28.58;18.75;;;9.60;99.90;;;;;;4955825;29;20032;-89
2021/12/13 20:37:41;;;;;;;23.25;16.40;;;9.60;99.90;;;;;;4938227;29;20063;-92
2021/12/13 20:40:20;;;;;;;26.10;17.23;;;9.60;99.90;;;;;;4955671;29;20554;-91
2021/12/13 20:43:15;;;;;;;25.55;17.02;;;9.50;99.90;;;;;;4955098;29;20026;-90
2021/12/13 20:45:57;;;;;;;23.75;17.55;;;9.60;99.90;;;;;;4955519;29;20031;-90
2021/12/13 20:52:17;;;;;;;31.20;19.77;;;9.50;99.90;;;;;;4922907;28;20077;-91
2021/12/13 20:55:16;;;;;;;;;;;;;;;;;;;;;
2021/12/13 21:01:44;;;;;;;;;;;;;;;;;;;;;
2021/12/13 21:07:46;;;;;;;27.40;18.65;;;9.60;99.90;;;;;;4838605;29;19912;-90
2021/12/13 21:14:36;;;;;;;31.80;19.30;;;9.60;99.90;;;;;;4813148;29;20037;-89
2021/12/13 21:24:22;;;;;;;29.13;20.52;;;9.40;99.90;;;;;;4856444;29;20041;-91
2021/12/13 21:30:33;;;;;;;;;;;;;;;;;;;;;
2021/12/13 21:33:18;;;;;;;29.85;20.08;;;9.40;99.90;;;;;;4872163;29;20448;-91
2021/12/13 21:36:16;;;;;;;;;;;;;;;;;;;;;
2021/12/13 21:39:34;;;;;;;;;;;;;;;;;;;;;
2021/12/13 21:42:51;;;;;;;;;;;;;;;;;;;;;
2021/12/13 21:46:02;;;;;;;;;;;;;;;;;;;;;
2021/12/13 21:49:00;;;;;;;31.42;19.48;;;9.50;99.90;;;;;;4949526;29;20043;-93
2021/12/13 21:52:37;;;;;;;;;;;;;;;;;;;;;
2021/12/13 21:59:18;;;;;;;;;;;;;;;;;;;;;
2021/12/13 22:02:37;;;;;;;;;;;;;;;;;;;;;
2021/12/13 22:09:21;;;;;;;;;;;;;;;;;;;;;
2021/12/13 22:16:19;;;;;;;;;;;;;;;;;;;;;
2021/12/13 22:19:56;;;;;;;;;;;;;;;;;;;;;
2021/12/13 22:26:13;;;;;;;;;;;;;;;;;;;;;
2021/12/13 22:36:11;;;;;;;31.73;21.45;;;9.00;99.90;;;;;;4850717;29;20029;-90
2021/12/13 22:39:23;;;;;;;30.95;21.70;;;9.10;99.90;;;;;;4833659;29;20049;-91
2021/12/13 22:42:51;;;;;;;;;;;;;;;;;;;;;
2021/12/13 22:52:20;;;;;;;;;;;;;;;;;;;;;
2021/12/13 22:55:34;;;;;;;33.90;20.52;;;9.10;99.90;;;;;;4824849;29;20058;-89
2021/12/13 23:01:53;;;;;;;34.83;22.80;;;9.10;99.90;;;;;;4802266;29;20061;-89
2021/12/13 23:15:25;;;;;;;;;;;;;;;;;;;;;
2021/12/13 23:56:02;;;;;;;;;;;;;;;;;;;;;
